Αναφορές METAR

 

LGKZ - Kozani (civ/Army, Greece
Distance from station: ΝΔ 41km
Ενημερώθηκε: 17/08/2017 20:50
NOT Current
Μερικώς νεφελώδης
Μερικώς νεφελώδης
 Ανεμος από ΒΒΔ
Ανεμος: ΒΒΔ 7 km/h
Θερμοκρασία: 24°C
Σημείο Δρόσου: 16°C
Υγρασία: 61%
Βαρόμετρο: 1016 hPa
Clouds: Μερικώς νεφελώδης
Visibility: 10 km
Cloud details: Few Clouds 914 m
Μερικώς νεφελώδης 2438 m
2017/08/17 17:50 LGKZ 171750Z 34004KT 9999 FEW030 SCT080 24/16 Q1016
LGTS - Thessaloniki/Mik, Greece
Distance from station: Α 64km
Ενημερώθηκε: 18/08/2017 00:20
Few Clouds
Few Clouds
 Ανεμος από varies
Ανεμος: varies 2 km/h
Θερμοκρασία: 27°C
Σημείο Δρόσου: 10°C
Υγρασία: 34%
Βαρόμετρο: 1013 hPa
Clouds: Few Clouds
Visibility: 10 km
Cloud details: Few Clouds 1067 m
2017/08/17 21:20 LGTS 172120Z VRB01KT 9999 FEW035 27/10 Q1013 NOSIG
 
LGIO - Ioannina, Greece
Distance from station: ΝΔ 149km
Ενημερώθηκε: 17/08/2017 22:20
NOT Current
Few Clouds
Few Clouds
 Ανεμος από varies
Ανεμος: varies 0 km/h
Θερμοκρασία: 22°C
Σημείο Δρόσου: 13°C
Υγρασία: 57%
Βαρόμετρο: 1016 hPa
Clouds: Few Clouds
Visibility: 10 km
Cloud details: Few Clouds 1067 m
2017/08/17 19:20 LGIO 171920Z /////KT 9999 FEW035 22/13 Q1016
LGBL - Nea Anchialos, Greece
Distance from station: ΝΝΑ 154km
Ενημερώθηκε: 17/08/2017 23:50
Few Clouds
Few Clouds
 Ανεμος από Δ
Ανεμος: Δ 7 km/h
Θερμοκρασία: 23°C
Σημείο Δρόσου: 9°C
Υγρασία: 41%
Βαρόμετρο: 1013 hPa
Clouds: Few Clouds
Visibility: 10 km
Cloud details: Few Clouds 1219 m
2017/08/17 20:50 LGBL 172050Z 28004KT 9999 FEW040 23/09 Q1013
 
LGSK - Skiathos Island, Greece
Distance from station: ΝΑ 185km
Ενημερώθηκε: 17/08/2017 21:50
NOT Current
Αίθριος
Αίθριος
 Ανεμος από calm
Ανεμος: Απνοια
Θερμοκρασία: 28°C
Heat Index: 28°C
Σημείο Δρόσου: 14°C
Υγρασία: 42%
Βαρόμετρο: 1011 hPa
Περίληψη: Αίθριος
Visibility: greater than 10 km
2017/08/17 18:50 LGSK 171850Z 00000KT CAVOK 28/14 Q1011
LGKV - Kavala/Chrisoupo, Greece
Distance from station: ΑΒΑ 208km
Ενημερώθηκε: 17/08/2017 23:50
Αίθριος
Αίθριος
 Ανεμος από ΒΑ
Ανεμος: ΒΑ 6 km/h
Θερμοκρασία: 23°C
Σημείο Δρόσου: 13°C
Υγρασία: 53%
Βαρόμετρο: 1013 hPa
Περίληψη: Αίθριος
Visibility: greater than 10 km
2017/08/17 20:50 LGKV 172050Z 04003KT CAVOK 23/13 Q1013
 
LGPZ - Preveza/Aktion, Greece
Distance from station: ΝΔ 217km
Ενημερώθηκε: 17/08/2017 23:50
Few Clouds
Few Clouds
 Ανεμος από calm
Ανεμος: Απνοια
Θερμοκρασία: 23°C
Σημείο Δρόσου: 21°C
Υγρασία: 89%
Βαρόμετρο: 1012 hPa
Clouds: Few Clouds
Visibility: 10 km
Cloud details: Few Clouds 610 m
2017/08/17 20:50 LGPZ 172050Z 00000KT 9999 FEW020 23/21 Q1012
LGKR - Ioannis Kapodist, Greece
Distance from station: ΔΝΔ 219km
Ενημερώθηκε: 18/08/2017 00:20
Αίθριος
Αίθριος
 Ανεμος από calm
Ανεμος: Απνοια
Θερμοκρασία: 26°C
Σημείο Δρόσου: 21°C
Υγρασία: 74%
Βαρόμετρο: 1011 hPa
Περίληψη: Αίθριος
Visibility: greater than 10 km
2017/08/17 21:20 LGKR 172120Z 00000KT CAVOK 26/21 Q1011 NOSIG
 
LGSY - Skiros, Greece
Distance from station: ΝΑ 261km
Ενημερώθηκε: 17/08/2017 23:50
Αίθριος
Αίθριος
 Ανεμος από Β
Ανεμος: Β 22 km/h
Θερμοκρασία: 27°C
Heat Index: 29°C
Σημείο Δρόσου: 20°C
Υγρασία: 66%
Βαρόμετρο: 1010 hPa
Περίληψη: Αίθριος
Visibility: greater than 10 km
2017/08/17 20:50 LGSY 172050Z 35012KT CAVOK 27/20 Q1010 BLU
LGLM - Limnos Island Ar, Greece
Distance from station: ΑΝΑ 266km
Ενημερώθηκε: 18/08/2017 00:20

 Ανεμος από Β
Ανεμος: Β 15 km/h
Θερμοκρασία: 26°C
Σημείο Δρόσου: 18°C
Υγρασία: 61%
Βαρόμετρο: 1012 hPa
2017/08/17 21:20 LGLM 172120Z AUTO 01008KT //// // ////// 26/18 Q1012 RE//
 
LGRX - Araxos (civ/Afb), Greece
Distance from station: ΝΝΔ 271km
Ενημερώθηκε: 17/08/2017 23:50
Αίθριος
Αίθριος
 Ανεμος από calm
Ανεμος: Απνοια
Θερμοκρασία: 25°C
Σημείο Δρόσου: 18°C
Υγρασία: 65%
Βαρόμετρο: 1012 hPa
Περίληψη: Αίθριος
Visibility: greater than 10 km
2017/08/17 20:50 LGRX 172050Z 00000KT CAVOK 25/18 Q1012
LGEL - Elefsis (hel-Afb, Greece
Distance from station: ΝΝΑ 297km
Ενημερώθηκε: 18/08/2017 00:20
Αίθριος
Αίθριος
 Ανεμος από varies
Ανεμος: varies 4 km/h
Θερμοκρασία: 29°C
Σημείο Δρόσου: 9°C
Υγρασία: 29%
Βαρόμετρο: 1011 hPa
Περίληψη: Αίθριος
Visibility: greater than 10 km
2017/08/17 21:20 LGEL 172120Z VRB02KT CAVOK 29/09 Q1011
 
LGAD - Andravida (civ/A, Greece
Distance from station: ΝΝΔ 301km
Ενημερώθηκε: 18/08/2017 00:20
Few Clouds
Few Clouds
 Ανεμος από ΒΒΔ
Ανεμος: ΒΒΔ 4 km/h
Θερμοκρασία: 23°C
Σημείο Δρόσου: 19°C
Υγρασία: 78%
Βαρόμετρο: 1012 hPa
Clouds: Few Clouds
Visibility: 10 km
Cloud details: Few Clouds 2438 m
2017/08/17 21:20 LGAD 172120Z 33002KT 9999 FEW080 23/19 Q1012
LGKF - Kefallinia, Greece
Distance from station: ΝΝΔ 305km
Ενημερώθηκε: 17/08/2017 22:50
NOT Current
Few Clouds
Few Clouds
 Ανεμος από Β
Ανεμος: Β 9 km/h
Θερμοκρασία: 30°C
Heat Index: 30°C
Σημείο Δρόσου: 16°C
Υγρασία: 43%
Βαρόμετρο: 1012 hPa
Clouds: Few Clouds
Visibility: 10 km
Cloud details: Few Clouds 610 m
2017/08/17 19:50 LGKF 171950Z 35005KT 9999 FEW020 30/16 Q1012